Pleasant Grove, Minnesota
Current Conditions -  °F | °C
As of 2:54 AM on Saturday 29 Nov 2014 (Local Time) from KRST Reporting Station
Haze Haze  
Wind Chill: 11°   Ceiling: Unl
Heat Index: 23°   Visibility: 4mi
Dew Point: 21°   Wind: 14mph
Humidity: 92%   Direction: 150°SSE
Pressure: 29.59"   Gusts: NA
Location:  43.8884°N, 92.383°W
Report Text: KRST 290854Z AUTO 15012KT 4SM BR CLR M05/M06 A2959 RMK AO2 SLP040 T10501061 56027
Loading
Personal Weather Stations






























Interactive Weather Map New forecast layout! Learn more

10-Day Weather Forecast

Advertisements
Track Severe Weather on mobile